Petersburg James A Johnson Airport
PAPG : now visible

Airfield :











YOU CAN JOIN US ON...

 
LOGIN :

Register | Disclaimer

   EN    FR    IT 

 









Legend :    VFR   Marginal VFR   IFR   Intensive IFR   Very Intensive IFR
Visi :
Ceiling :
>= 8 km
>= 3000ft
5 to 8 km
1000 to 3000 ft
1500m to 5 km
500 to 1000 ft
800 to 1500m
200 to 500 ft
< 800m
< 200 ft
Symbols :   Thunderstorms  Fog  Heavy snow  Heavy precipitations  Wind > 20 kt






- Airport Elevation : 111 ft
- IATA code : PSG


PAPG - Petersburg James A Johnson

CURRENT METAR :
  • 171156Z AUTO 28003KT 10SM FEW001 BKN065 M02/M02 A3026 RMK AO2 SLP249 6//// 7//// T10171017 10006 21017 51021 FZRANO

EXPIRED METARs :
  • 171122Z AUTO 29003KT 10SM FEW002 OVC070 M01/M02 A3025 RMK AO2 FZRANO
  • 171056Z AUTO 26004KT 10SM BKN002 OVC070 M01/M01 A3024 RMK AO2 SLP243 T10111011 FZRANO
  • 170956Z AUTO 23003KT 10SM BKN002 OVC070 M01/M01 A3022 RMK AO2 SLP237 T10061011 FZRANO
  • 170921Z AUTO 26003KT M01/M01 A3020 RMK AO2 FZRANO
  • 170856Z AUTO 28004KT 9SM BKN002 OVC070 M01/M01 A3019 RMK AO2 SLP228 6//// T10061011 400441011 51026 FZRANO

TAF PAPG
Valid from the 17 at 12:00 until the 18 at 12:00 UTC


171124Z 1712/1812 24003KT P6SM BKN002 OVC060
FM172100 34003KT P6SM VCSH OVC010
FM180600 VRB03KT P6SM VCSH OVC004 AMD LTD TO CLD VIS AND WIND 1712/1715



MET'MAP, your aeronautical weather chart ! - Copyright ORBIFLY December 2007 - Disclaimer

ORBIFLY MET'MAP TEAM :

Programming & Development : Alexandra Zaïnal
Concept & original design : Baudouin d'Aumeries
Assistance for programming : Marc-Olivier Méhu
Technical & hardware support : Manuel Goepfert

Contact : metmap@orbifly.com




SOURCES & CREDITS :

   NOAA       Earth
Advisory